Time;durP1;ratioP1;P1;durP2;ratioP2;P2;SDS_P1;SDS_P2;PMS_P1;PMS_P2;Temp;Humidity;BMP_temperature;BMP_pressure;BME280_temperature;BME280_humidity;BME280_pressure;Samples;Min_cycle;Max_cycle;Signal;HPM_P1;HPM_P2
2022/06/27 00:00:14;;;;;;;;;;;23.10;73.30;;;;;;5039357;28;19936;-75
2022/06/27 00:02:40;;;;;;;;;;;23.00;73.30;;;;;;5041859;28;19929;-76
2022/06/27 00:05:09;;;;;;;;;;;23.00;73.50;;;;;;5040003;28;20541;-76
2022/06/27 00:07:35;;;;;;;;;;;23.00;73.60;;;;;;5040481;28;19962;-75
2022/06/27 00:10:02;;;;;;;;;;;23.00;73.70;;;;;;5036708;28;19933;-75
2022/06/27 00:12:29;;;;;;;;;;;22.90;73.80;;;;;;5040692;28;20523;-75
2022/06/27 00:14:55;;;;;;;;;;;22.90;74.00;;;;;;5043495;28;19929;-77
2022/06/27 00:17:22;;;;;;;;;;;22.80;74.10;;;;;;5040039;28;19939;-76
2022/06/27 00:19:49;;;;;;;;;;;22.80;74.20;;;;;;5040891;28;19933;-75
2022/06/27 00:22:16;;;;;;;;;;;22.70;74.30;;;;;;5041078;28;19929;-75
2022/06/27 00:24:43;;;;;;;;;;;22.80;74.60;;;;;;5039930;28;19929;-75
2022/06/27 00:27:10;;;;;;;;;;;22.70;74.60;;;;;;5041283;28;20016;-76
2022/06/27 00:29:37;;;;;;;;;;;22.60;74.70;;;;;;5044102;28;20699;-75
2022/06/27 00:32:04;;;;;;;;;;;22.60;74.80;;;;;;5040464;28;20387;-75
2022/06/27 00:34:30;;;;;;;;;;;22.50;74.90;;;;;;5041933;28;20411;-75
2022/06/27 00:36:57;;;;;;;;;;;22.50;75.00;;;;;;5040142;28;20297;-75
2022/06/27 00:39:25;;;;;;;;;;;22.50;75.10;;;;;;5040117;28;20447;-78
2022/06/27 00:41:51;;;;;;;;;;;22.50;75.30;;;;;;5040311;28;19936;-75
2022/06/27 00:44:31;;;;;;;;;;;22.40;75.50;;;;;;5038114;28;19936;-75
2022/06/27 00:46:58;;;;;;;;;;;22.40;75.60;;;;;;5036737;28;20023;-75
2022/06/27 00:49:24;;;;;;;;;;;22.40;75.70;;;;;;5042103;28;19933;-77
2022/06/27 00:51:51;;;;;;;;;;;22.30;75.90;;;;;;5039407;28;19929;-76
2022/06/27 00:54:18;;;;;;;;;;;22.30;76.10;;;;;;5035761;28;19924;-75
2022/06/27 00:56:46;;;;;;;;;;;22.20;76.20;;;;;;5039210;28;20308;-74
2022/06/27 00:59:12;;;;;;;;;;;22.20;76.30;;;;;;5039224;28;19928;-74
2022/06/27 01:01:39;;;;;;;;;;;22.20;76.50;;;;;;5042755;28;19940;-74
2022/06/27 01:04:06;;;;;;;;;;;22.20;76.60;;;;;;5036147;28;19936;-74
2022/06/27 01:06:32;;;;;;;;;;;22.10;76.60;;;;;;5038884;28;19929;-75
2022/06/27 01:08:59;;;;;;;;;;;22.10;76.70;;;;;;5037156;28;20416;-73
2022/06/27 01:11:25;;;;;;;;;;;22.10;76.80;;;;;;5040580;28;19932;-73
2022/06/27 01:13:53;;;;;;;;;;;22.00;77.00;;;;;;5038336;28;19925;-74
2022/06/27 01:16:20;;;;;;;;;;;22.00;77.20;;;;;;5038334;28;19925;-73
2022/06/27 01:18:46;;;;;;;;;;;21.90;77.20;;;;;;5038011;28;19935;-73
2022/06/27 01:21:19;;;;;;;;;;;21.90;77.20;;;;;;5038311;28;19936;-73
2022/06/27 01:23:47;;;;;;;;;;;21.80;77.20;;;;;;5039796;28;20377;-73
2022/06/27 01:26:14;;;;;;;;;;;21.80;77.30;;;;;;5039502;28;19936;-73
2022/06/27 01:28:40;;;;;;;;;;;21.80;77.50;;;;;;5040831;28;19933;-73
2022/06/27 01:31:07;;;;;;;;;;;21.70;77.40;;;;;;5041183;28;19928;-73
2022/06/27 01:33:33;;;;;;;;;;;21.70;77.60;;;;;;5037915;28;19936;-73
2022/06/27 01:38:40;;;;;;;;;;;21.60;77.90;;;;;;5037972;28;19950;-74
2022/06/27 01:41:08;;;;;;;;;;;21.60;78.00;;;;;;5037745;28;19929;-74
2022/06/27 01:43:35;;;;;;;;;;;21.50;78.10;;;;;;5038301;28;19933;-75
2022/06/27 01:46:01;;;;;;;;;;;21.50;78.30;;;;;;5038571;28;19928;-75
2022/06/27 01:48:30;;;;;;;;;;;21.50;78.40;;;;;;5037855;28;19944;-74
2022/06/27 01:50:58;;;;;;;;;;;21.50;78.50;;;;;;5040500;28;19929;-74
2022/06/27 01:53:26;;;;;;;;;;;21.40;78.50;;;;;;5039942;28;19928;-74
2022/06/27 01:55:53;;;;;;;;;;;21.40;78.70;;;;;;5035786;28;19963;-74
2022/06/27 01:58:21;;;;;;;;;;;21.40;78.80;;;;;;5038823;28;19936;-73
2022/06/27 02:00:48;;;;;;;;;;;21.40;78.90;;;;;;5037197;28;20471;-74
2022/06/27 02:03:14;;;;;;;;;;;21.30;79.00;;;;;;5037383;28;20420;-73
2022/06/27 02:05:41;;;;;;;;;;;21.30;79.20;;;;;;5036377;28;19939;-75
2022/06/27 02:08:09;;;;;;;;;;;21.30;79.30;;;;;;5035761;28;19939;-74
2022/06/27 02:10:35;;;;;;;;;;;21.30;79.30;;;;;;5039285;28;19932;-75
2022/06/27 02:13:03;;;;;;;;;;;21.20;79.40;;;;;;5038189;28;19936;-75
2022/06/27 02:15:31;;;;;;;;;;;21.20;79.40;;;;;;5039168;28;20011;-74
2022/06/27 02:17:58;;;;;;;;;;;21.20;79.50;;;;;;5038332;28;19972;-74
2022/06/27 02:20:26;;;;;;;;;;;21.20;79.60;;;;;;5036642;28;21331;-75
2022/06/27 02:22:53;;;;;;;;;;;21.10;79.60;;;;;;5037306;28;19940;-76
2022/06/27 02:25:20;;;;;;;;;;;21.10;79.70;;;;;;5038452;28;19929;-74
2022/06/27 02:27:47;;;;;;;;;;;21.10;79.80;;;;;;5036754;28;19933;-73
2022/06/27 02:30:14;;;;;;;;;;;21.10;80.00;;;;;;5040662;28;19932;-74
2022/06/27 02:32:42;;;;;;;;;;;21.00;79.90;;;;;;5044634;28;19947;-75
2022/06/27 02:35:09;;;;;;;;;;;21.00;80.10;;;;;;5045562;28;19933;-75
2022/06/27 02:37:36;;;;;;;;;;;21.00;80.20;;;;;;5045308;28;20023;-75
2022/06/27 02:40:03;;;;;;;;;;;21.00;80.30;;;;;;5044711;28;19924;-75
2022/06/27 02:42:30;;;;;;;;;;;20.90;80.40;;;;;;5045614;28;19928;-75
2022/06/27 02:44:57;;;;;;;;;;;20.90;80.40;;;;;;5043195;28;19929;-73
2022/06/27 02:47:24;;;;;;;;;;;20.90;80.50;;;;;;5044212;28;20502;-75
2022/06/27 02:49:52;;;;;;;;;;;20.90;80.50;;;;;;5044996;28;20393;-73
2022/06/27 02:52:20;;;;;;;;;;;20.80;80.50;;;;;;5045093;28;19929;-75
2022/06/27 02:54:48;;;;;;;;;;;20.80;80.60;;;;;;5043119;28;20384;-73
2022/06/27 02:57:18;;;;;;;;;;;20.70;80.70;;;;;;5045827;28;19932;-73
2022/06/27 02:59:46;;;;;;;;;;;20.80;80.80;;;;;;5044398;28;19937;-74
2022/06/27 03:02:14;;;;;;;;;;;20.70;80.80;;;;;;5044816;28;20019;-75
2022/06/27 03:04:41;;;;;;;;;;;20.70;80.90;;;;;;5044068;28;19929;-74
2022/06/27 03:07:09;;;;;;;;;;;20.70;81.00;;;;;;5045556;28;20029;-74
2022/06/27 03:09:35;;;;;;;;;;;20.70;81.00;;;;;;5045274;28;19940;-74
2022/06/27 03:12:02;;;;;;;;;;;20.70;81.10;;;;;;5046318;28;19936;-74
2022/06/27 03:14:28;;;;;;;;;;;20.70;81.10;;;;;;5042289;28;19929;-73
2022/06/27 03:16:55;;;;;;;;;;;20.60;81.10;;;;;;5045080;28;19933;-75
2022/06/27 03:19:21;;;;;;;;;;;20.60;81.10;;;;;;5045834;28;19936;-74
2022/06/27 03:21:48;;;;;;;;;;;20.60;81.10;;;;;;5040636;28;19928;-74
2022/06/27 03:24:16;;;;;;;;;;;20.60;81.10;;;;;;5044148;28;19929;-73
2022/06/27 03:26:42;;;;;;;;;;;20.60;81.10;;;;;;5044004;28;20377;-75
2022/06/27 03:29:09;;;;;;;;;;;20.50;81.10;;;;;;5043539;28;20636;-73
2022/06/27 03:31:36;;;;;;;;;;;20.50;81.20;;;;;;5040850;28;20046;-74
2022/06/27 03:34:02;;;;;;;;;;;20.50;81.30;;;;;;5043714;28;19933;-75
2022/06/27 03:36:29;;;;;;;;;;;20.50;81.30;;;;;;5044893;28;19929;-74
2022/06/27 03:38:56;;;;;;;;;;;20.50;81.30;;;;;;5040565;28;19932;-74
2022/06/27 03:41:23;;;;;;;;;;;20.50;81.30;;;;;;5039634;28;19936;-74
2022/06/27 03:43:50;;;;;;;;;;;20.50;81.50;;;;;;5034052;28;19928;-73
2022/06/27 03:46:17;;;;;;;;;;;20.40;81.50;;;;;;5030719;28;20509;-73
2022/06/27 03:51:27;;;;;;;;;;;20.40;81.60;;;;;;5040806;28;19927;-74
2022/06/27 03:53:54;;;;;;;;;;;20.40;81.70;;;;;;5032937;28;19941;-76
2022/06/27 03:56:20;;;;;;;;;;;20.30;81.70;;;;;;5033338;28;20687;-74
2022/06/27 03:58:48;;;;;;;;;;;20.30;81.70;;;;;;5035467;28;19928;-74
2022/06/27 04:01:15;;;;;;;;;;;20.30;81.90;;;;;;5033662;28;19932;-73
2022/06/27 04:03:42;;;;;;;;;;;20.30;81.80;;;;;;5031911;28;19929;-74
2022/06/27 04:06:08;;;;;;;;;;;20.30;81.80;;;;;;5036901;28;20416;-74
2022/06/27 04:08:35;;;;;;;;;;;20.30;81.90;;;;;;5037742;28;20401;-74
2022/06/27 04:11:01;;;;;;;;;;;20.30;81.90;;;;;;5034931;28;20339;-74
2022/06/27 04:13:28;;;;;;;;;;;20.20;81.90;;;;;;5037105;28;20415;-74
2022/06/27 04:15:56;;;;;;;;;;;20.20;82.00;;;;;;5030472;28;21109;-75
2022/06/27 04:18:22;;;;;;;;;;;20.20;82.00;;;;;;5038790;28;19936;-73
2022/06/27 04:20:49;;;;;;;;;;;20.20;82.10;;;;;;5035912;28;19929;-74
2022/06/27 04:23:15;;;;;;;;;;;20.10;82.00;;;;;;5034353;28;19933;-74
2022/06/27 04:25:43;;;;;;;;;;;20.10;82.10;;;;;;5031234;28;19929;-74
2022/06/27 04:28:10;;;;;;;;;;;20.10;82.00;;;;;;5033621;28;20495;-74
2022/06/27 04:30:36;;;;;;;;;;;20.10;82.10;;;;;;5036231;28;20419;-74
2022/06/27 04:33:04;;;;;;;;;;;20.10;82.20;;;;;;5039865;28;20027;-74
2022/06/27 04:35:32;;;;;;;;;;;20.10;82.30;;;;;;5040000;28;19979;-74
2022/06/27 04:37:58;;;;;;;;;;;20.00;82.30;;;;;;5036266;28;20485;-74
2022/06/27 04:40:25;;;;;;;;;;;20.00;82.40;;;;;;5032100;28;19936;-75
2022/06/27 04:42:52;;;;;;;;;;;20.00;82.40;;;;;;5035681;28;19928;-74
2022/06/27 04:45:18;;;;;;;;;;;20.00;82.50;;;;;;5030929;28;20412;-74
2022/06/27 04:47:46;;;;;;;;;;;20.00;82.60;;;;;;5032963;28;20297;-73
2022/06/27 04:50:15;;;;;;;;;;;20.00;82.70;;;;;;5035450;28;20660;-74
2022/06/27 04:52:42;;;;;;;;;;;20.00;82.90;;;;;;5032902;28;19951;-73
2022/06/27 04:55:09;;;;;;;;;;;20.00;83.20;;;;;;5030816;28;19940;-74
2022/06/27 04:57:36;;;;;;;;;;;20.00;83.20;;;;;;5036238;28;19932;-75
2022/06/27 05:00:04;;;;;;;;;;;19.90;83.30;;;;;;5035238;28;19932;-75
2022/06/27 05:02:30;;;;;;;;;;;19.90;83.40;;;;;;5034294;28;19929;-73
2022/06/27 05:04:57;;;;;;;;;;;19.90;83.40;;;;;;5033644;28;19933;-74
2022/06/27 05:07:25;;;;;;;;;;;19.90;83.50;;;;;;5041828;28;20380;-76
2022/06/27 05:09:52;;;;;;;;;;;19.90;83.50;;;;;;5041264;28;19939;-74
2022/06/27 05:12:19;;;;;;;;;;;19.90;83.60;;;;;;5042163;28;19929;-75
2022/06/27 05:14:46;;;;;;;;;;;19.90;83.70;;;;;;5040058;28;19928;-73
2022/06/27 05:17:12;;;;;;;;;;;19.90;84.10;;;;;;5035717;28;20984;-74
2022/06/27 05:19:39;;;;;;;;;;;19.90;83.90;;;;;;5037615;28;19933;-74
2022/06/27 05:22:07;;;;;;;;;;;19.90;83.80;;;;;;5040515;28;19952;-75
2022/06/27 05:24:35;;;;;;;;;;;19.90;83.90;;;;;;5037349;28;19928;-74
2022/06/27 05:27:02;;;;;;;;;;;19.90;83.90;;;;;;5036015;28;19929;-74
2022/06/27 05:29:28;;;;;;;;;;;19.90;83.90;;;;;;5041046;28;19929;-75
2022/06/27 05:31:55;;;;;;;;;;;19.80;83.90;;;;;;5037920;28;19983;-76
2022/06/27 05:34:22;;;;;;;;;;;19.90;84.10;;;;;;5033007;28;20051;-74
2022/06/27 05:36:49;;;;;;;;;;;19.90;84.00;;;;;;5038549;28;19940;-75
2022/06/27 05:39:15;;;;;;;;;;;19.90;84.00;;;;;;5029831;28;19932;-75
2022/06/27 05:41:45;;;;;;;;;;;19.80;84.00;;;;;;5033830;28;20425;-73
2022/06/27 05:44:13;;;;;;;;;;;19.80;84.10;;;;;;5033201;28;20003;-69
2022/06/27 05:46:40;;;;;;;;;;;19.80;84.10;;;;;;5035621;28;19929;-66
2022/06/27 05:49:08;;;;;;;;;;;19.80;84.20;;;;;;5037306;28;21259;-67
2022/06/27 05:51:35;;;;;;;;;;;19.80;84.50;;;;;;5037992;28;19928;-67
2022/06/27 05:54:02;;;;;;;;;;;19.80;84.50;;;;;;5036704;28;19929;-69
2022/06/27 05:56:30;;;;;;;;;;;19.80;84.50;;;;;;5041342;28;19928;-68
2022/06/27 05:58:58;;;;;;;;;;;19.80;84.60;;;;;;5039661;28;19935;-69
2022/06/27 06:01:25;;;;;;;;;;;19.80;84.70;;;;;;5037942;28;19940;-69
2022/06/27 06:03:52;;;;;;;;;;;19.80;84.80;;;;;;5040189;28;19987;-69
2022/06/27 06:06:19;;;;;;;;;;;19.80;84.90;;;;;;5040535;28;19931;-69
2022/06/27 06:08:46;;;;;;;;;;;19.70;84.80;;;;;;5038701;28;19924;-69
2022/06/27 06:11:14;;;;;;;;;;;19.80;84.90;;;;;;5035354;28;20347;-68
2022/06/27 06:13:41;;;;;;;;;;;19.70;85.00;;;;;;5039555;28;19935;-68
2022/06/27 06:16:10;;;;;;;;;;;19.70;85.10;;;;;;5039689;28;20027;-69
2022/06/27 06:18:37;;;;;;;;;;;19.70;85.10;;;;;;5040789;28;20439;-67
2022/06/27 06:21:04;;;;;;;;;;;19.70;85.40;;;;;;5041579;28;20344;-70
2022/06/27 06:23:31;;;;;;;;;;;19.80;85.60;;;;;;5033845;28;19929;-68
2022/06/27 06:25:57;;;;;;;;;;;19.70;85.60;;;;;;5039017;28;20019;-69
2022/06/27 06:28:25;;;;;;;;;;;19.70;85.60;;;;;;5040655;28;19928;-69
2022/06/27 06:30:52;;;;;;;;;;;19.70;85.70;;;;;;5036012;28;19933;-69
2022/06/27 06:33:20;;;;;;;;;;;19.70;85.80;;;;;;5040707;28;19929;-69
2022/06/27 06:35:47;;;;;;;;;;;19.70;85.80;;;;;;5036457;28;20022;-68
2022/06/27 06:38:13;;;;;;;;;;;19.70;85.80;;;;;;5040357;28;19929;-66
2022/06/27 06:40:40;;;;;;;;;;;19.70;85.80;;;;;;5042029;28;19935;-69
2022/06/27 06:43:07;;;;;;;;;;;19.70;85.90;;;;;;5038742;28;19928;-68
2022/06/27 06:45:34;;;;;;;;;;;19.70;86.00;;;;;;5037153;28;19928;-71
2022/06/27 06:48:00;;;;;;;;;;;19.70;86.20;;;;;;5041669;28;19928;-66
2022/06/27 06:50:29;;;;;;;;;;;19.70;86.20;;;;;;5040946;28;19940;-68
2022/06/27 06:52:55;;;;;;;;;;;19.70;86.30;;;;;;5039589;28;20287;-66
2022/06/27 06:55:23;;;;;;;;;;;19.70;86.30;;;;;;5038269;28;20030;-69
2022/06/27 06:57:50;;;;;;;;;;;19.60;86.40;;;;;;5038267;28;20027;-77
2022/06/27 07:00:19;;;;;;;;;;;19.70;86.50;;;;;;5033994;28;19936;-76
2022/06/27 07:02:46;;;;;;;;;;;19.70;86.50;;;;;;5036708;28;20000;-76
2022/06/27 07:05:12;;;;;;;;;;;19.60;86.60;;;;;;5036911;28;19982;-76
2022/06/27 07:07:42;;;;;;;;;;;19.70;86.80;;;;;;5034789;28;19929;-77
2022/06/27 07:10:10;;;;;;;;;;;19.60;86.80;;;;;;5036074;28;20392;-77
2022/06/27 07:12:38;;;;;;;;;;;19.60;86.80;;;;;;5035029;28;19935;-76
2022/06/27 07:15:09;;;;;;;;;;;19.60;86.80;;;;;;5036224;28;19982;-76
2022/06/27 07:17:40;;;;;;;;;;;19.60;86.80;;;;;;5040701;28;19933;-77
2022/06/27 07:20:07;;;;;;;;;;;19.60;86.80;;;;;;5044040;28;19929;-77
2022/06/27 07:22:34;;;;;;;;;;;19.60;86.80;;;;;;5042427;28;20736;-76
2022/06/27 07:25:02;;;;;;;;;;;19.60;86.80;;;;;;5038045;28;19972;-77
2022/06/27 07:27:29;;;;;;;;;;;19.60;86.90;;;;;;5038987;28;19940;-77
2022/06/27 07:29:55;;;;;;;;;;;19.60;86.90;;;;;;5041774;28;19931;-78
2022/06/27 07:32:22;;;;;;;;;;;19.60;87.00;;;;;;5037769;28;19936;-76
2022/06/27 07:34:50;;;;;;;;;;;19.60;87.00;;;;;;5036229;28;19933;-77
2022/06/27 07:37:18;;;;;;;;;;;19.60;87.00;;;;;;5040661;28;20008;-76
2022/06/27 07:39:44;;;;;;;;;;;19.60;87.00;;;;;;5038916;28;19936;-78
2022/06/27 07:42:12;;;;;;;;;;;19.60;87.80;;;;;;5041443;28;19929;-77
2022/06/27 07:44:41;;;;;;;;;;;19.60;87.10;;;;;;5040234;28;19933;-77
2022/06/27 07:47:08;;;;;;;;;;;19.60;87.20;;;;;;5039322;28;20035;-77
2022/06/27 07:49:35;;;;;;;;;;;19.60;87.30;;;;;;5039862;28;19939;-76
2022/06/27 07:52:01;;;;;;;;;;;19.70;87.70;;;;;;5042364;28;20551;-76
2022/06/27 07:54:28;;;;;;;;;;;19.70;87.80;;;;;;5040019;28;19929;-76
2022/06/27 07:56:55;;;;;;;;;;;19.70;87.90;;;;;;5040535;28;20113;-77
2022/06/27 07:59:25;;;;;;;;;;;19.70;88.10;;;;;;5037911;28;20015;-76
2022/06/27 08:01:51;;;;;;;;;;;19.60;88.20;;;;;;5039055;28;20037;-78
2022/06/27 08:04:18;;;;;;;;;;;19.70;88.30;;;;;;5036096;28;20020;-76
2022/06/27 08:06:45;;;;;;;;;;;19.70;88.20;;;;;;5041163;28;20712;-77
2022/06/27 08:09:12;;;;;;;;;;;19.60;88.30;;;;;;5034645;28;19929;-76
2022/06/27 08:11:40;;;;;;;;;;;19.70;88.50;;;;;;5038660;28;20353;-76
2022/06/27 08:14:09;;;;;;;;;;;19.70;88.80;;;;;;5040310;28;20413;-77
2022/06/27 08:16:39;;;;;;;;;;;19.70;88.90;;;;;;5039726;28;19929;-76
2022/06/27 08:19:06;;;;;;;;;;;19.80;89.10;;;;;;5040458;28;20726;-76
2022/06/27 08:21:35;;;;;;;;;;;19.80;89.00;;;;;;5037333;28;19939;-76
2022/06/27 08:24:03;;;;;;;;;;;19.80;89.10;;;;;;5036935;28;19929;-77
2022/06/27 08:26:31;;;;;;;;;;;19.80;89.00;;;;;;5035079;28;19937;-77
2022/06/27 08:28:59;;;;;;;;;;;19.80;89.30;;;;;;5036200;28;19947;-76
2022/06/27 08:31:26;;;;;;;;;;;19.80;89.20;;;;;;5037716;28;19990;-75
2022/06/27 08:33:58;;;;;;;;;;;19.80;89.10;;;;;;5038650;28;19947;-76
2022/06/27 08:36:30;;;;;;;;;;;19.80;89.10;;;;;;5037125;28;20037;-76
2022/06/27 08:38:57;;;;;;;;;;;19.80;89.10;;;;;;5038636;28;19948;-76
2022/06/27 08:41:24;;;;;;;;;;;19.80;89.10;;;;;;5036004;28;19935;-76
2022/06/27 08:43:55;;;;;;;;;;;19.80;89.80;;;;;;5038226;28;19928;-76
2022/06/27 08:46:22;;;;;;;;;;;19.80;89.10;;;;;;5039417;28;19963;-75
2022/06/27 08:48:50;;;;;;;;;;;19.80;89.20;;;;;;5041781;28;20401;-74
2022/06/27 08:51:18;;;;;;;;;;;19.80;89.10;;;;;;5038794;28;20042;-72
2022/06/27 08:53:45;;;;;;;;;;;19.80;89.20;;;;;;5037211;28;19929;-75
2022/06/27 08:56:12;;;;;;;;;;;19.80;89.10;;;;;;5039798;28;20618;-74
2022/06/27 08:58:39;;;;;;;;;;;19.80;89.20;;;;;;5040820;28;20027;-73
2022/06/27 09:01:07;;;;;;;;;;;19.80;89.30;;;;;;5040010;28;20702;-73
2022/06/27 09:03:35;;;;;;;;;;;19.80;89.30;;;;;;5037150;28;19929;-74
2022/06/27 09:06:03;;;;;;;;;;;19.90;89.40;;;;;;5039287;28;19928;-74
2022/06/27 09:08:33;;;;;;;;;;;19.80;89.40;;;;;;5039724;28;19933;-74
2022/06/27 09:11:01;;;;;;;;;;;19.80;89.40;;;;;;5038607;28;19939;-76
2022/06/27 09:13:28;;;;;;;;;;;19.80;89.50;;;;;;5039743;28;20305;-74
2022/06/27 09:15:56;;;;;;;;;;;19.80;89.00;;;;;;5041421;28;19929;-74
2022/06/27 09:18:23;;;;;;;;;;;19.80;89.60;;;;;;5039842;28;19932;-74
2022/06/27 09:20:51;;;;;;;;;;;19.80;89.90;;;;;;5042191;28;20416;-73
2022/06/27 09:23:43;;;;;;;;;;;19.90;90.60;;;;;;5038538;28;20661;-73
2022/06/27 09:26:12;;;;;;;;;;;19.90;90.20;;;;;;5040985;28;19992;-76
2022/06/27 09:28:50;;;;;;;;;;;19.90;90.10;;;;;;5039905;28;20487;-75
2022/06/27 09:31:36;;;;;;;;;;;19.90;90.10;;;;;;5039828;28;19933;-75
2022/06/27 09:34:05;;;;;;;;;;;19.90;90.00;;;;;;5039101;28;20707;-76
2022/06/27 09:36:32;;;;;;;;;;;20.30;90.40;;;;;;5040471;28;19955;-74
2022/06/27 09:39:02;;;;;;;;;;;19.90;89.90;;;;;;5040224;28;19933;-77
2022/06/27 09:41:29;;;;;;;;;;;20.00;90.00;;;;;;5041826;28;20560;-76
2022/06/27 09:43:59;;;;;;;;;;;20.00;90.20;;;;;;5041031;28;19943;-73
2022/06/27 09:46:27;;;;;;;;;;;19.60;90.00;;;;;;5039534;28;19954;-74
2022/06/27 09:48:56;;;;;;;;;;;20.30;90.20;;;;;;5038431;28;19964;-75
2022/06/27 09:51:22;;;;;;;;;;;19.80;90.60;;;;;;5035735;28;19933;-77
2022/06/27 09:53:50;;;;;;;;;;;20.00;90.60;;;;;;5034070;28;19955;-75
2022/06/27 09:56:20;;;;;;;;;;;20.00;91.40;;;;;;5041869;28;19964;-77
2022/06/27 09:58:46;;;;;;;;;;;20.10;91.10;;;;;;5047317;28;19929;-77
2022/06/27 10:01:14;;;;;;;;;;;20.10;91.10;;;;;;5043044;28;20514;-77
2022/06/27 10:03:41;;;;;;;;;;;20.10;91.20;;;;;;5042746;28;20019;-79
2022/06/27 10:06:09;;;;;;;;;;;20.10;91.00;;;;;;5041616;28;19954;-75
2022/06/27 10:08:36;;;;;;;;;;;20.20;91.30;;;;;;5037611;28;19935;-76
2022/06/27 10:11:06;;;;;;;;;;;20.20;91.20;;;;;;5039092;28;19933;-75
2022/06/27 10:13:34;;;;;;;;;;;20.20;91.10;;;;;;5037785;28;19940;-76
2022/06/27 10:16:06;;;;;;;;;;;20.20;91.40;;;;;;5037522;28;19940;-76
2022/06/27 10:18:47;;;;;;;;;;;20.30;91.40;;;;;;5035377;28;19931;-75
2022/06/27 10:21:29;;;;;;;;;;;20.30;91.40;;;;;;5043493;28;19935;-75
2022/06/27 10:24:14;;;;;;;;;;;20.40;91.00;;;;;;5029918;28;19939;-77
2022/06/27 10:26:41;;;;;;;;;;;20.50;91.30;;;;;;5035191;28;20480;-74
2022/06/27 10:29:27;;;;;;;;;;;20.40;91.20;;;;;;5033897;28;19933;-75
2022/06/27 10:31:55;;;;;;;;;;;20.40;91.00;;;;;;5034099;28;19933;-76
2022/06/27 10:34:46;;;;;;;;;;;20.40;90.90;;;;;;5038768;28;20550;-75
2022/06/27 10:37:30;;;;;;;;;;;20.50;90.90;;;;;;5040446;28;19937;-76
2022/06/27 10:40:12;;;;;;;;;;;20.50;90.70;;;;;;5023921;28;20651;-74
2022/06/27 10:42:48;;;;;;;;;;;20.50;90.60;;;;;;5034735;28;19929;-76
2022/06/27 10:45:23;;;;;;;;;;;20.50;90.50;;;;;;5034171;28;19932;-76
2022/06/27 10:47:51;;;;;;;;;;;20.40;90.40;;;;;;5031663;28;20737;-76
2022/06/27 10:50:19;;;;;;;;;;;20.50;90.40;;;;;;5034976;28;21023;-76
2022/06/27 10:52:46;;;;;;;;;;;20.50;90.40;;;;;;5033963;28;19933;-76
2022/06/27 10:55:21;;;;;;;;;;;20.50;90.60;;;;;;5035881;28;19964;-76
2022/06/27 10:57:48;;;;;;;;;;;20.50;90.80;;;;;;5032298;28;20540;-76
2022/06/27 11:00:36;;;;;;;;;;;20.50;90.90;;;;;;5027707;28;20668;-76
2022/06/27 11:03:05;;;;;;;;;;;20.60;90.90;;;;;;5028225;28;19929;-75
2022/06/27 11:05:50;;;;;;;;;;;20.60;90.90;;;;;;5031525;28;19940;-77
2022/06/27 11:08:17;;;;;;;;;;;20.60;90.90;;;;;;5035455;28;19940;-76
2022/06/27 11:10:44;;;;;;;;;;;20.70;91.00;;;;;;5030916;28;19929;-76
2022/06/27 11:13:10;;;;;;;;;;;20.70;91.00;;;;;;5028576;28;19933;-76
2022/06/27 11:15:37;;;;;;;;;;;20.80;90.80;;;;;;5031389;28;19933;-76
2022/06/27 11:18:08;;;;;;;;;;;20.80;90.60;;;;;;5036622;28;19929;-77
2022/06/27 11:20:35;;;;;;;;;;;20.80;90.50;;;;;;5038563;28;20143;-76
2022/06/27 11:23:03;;;;;;;;;;;20.90;90.40;;;;;;5039122;28;19940;-76
2022/06/27 11:25:31;;;;;;;;;;;20.90;90.20;;;;;;5039199;28;19929;-74
2022/06/27 11:27:58;;;;;;;;;;;20.90;90.20;;;;;;5038642;28;20664;-75
2022/06/27 11:33:19;;;;;;;;;;;20.90;90.30;;;;;;5037705;28;19943;-76
2022/06/27 11:35:46;;;;;;;;;;;20.90;90.20;;;;;;5037420;28;19935;-75
2022/06/27 11:38:13;;;;;;;;;;;20.90;90.10;;;;;;5040670;28;19939;-73
2022/06/27 11:40:39;;;;;;;;;;;20.90;90.00;;;;;;5037644;28;20652;-73
2022/06/27 11:43:08;;;;;;;;;;;20.90;90.00;;;;;;5040800;28;19929;-77
2022/06/27 11:45:41;;;;;;;;;;;20.90;90.00;;;;;;5033425;28;20550;-76
2022/06/27 11:48:15;;;;;;;;;;;20.90;89.80;;;;;;5031919;28;20006;-77
2022/06/27 11:50:44;;;;;;;;;;;20.90;89.70;;;;;;5036001;28;20053;-74
2022/06/27 11:53:10;;;;;;;;;;;20.90;89.50;;;;;;5035878;28;20410;-76
2022/06/27 11:55:37;;;;;;;;;;;20.90;90.00;;;;;;5034884;28;19940;-74
2022/06/27 11:58:04;;;;;;;;;;;20.90;90.10;;;;;;5037793;28;19936;-76
2022/06/27 12:00:31;;;;;;;;;;;21.00;89.50;;;;;;5037845;28;19956;-74
2022/06/27 12:03:02;;;;;;;;;;;20.90;89.40;;;;;;5041019;28;19940;-75
2022/06/27 12:05:28;;;;;;;;;;;21.00;89.40;;;;;;5035894;28;19972;-74
2022/06/27 12:07:58;;;;;;;;;;;21.00;89.20;;;;;;5035436;28;19975;-75
2022/06/27 12:10:41;;;;;;;;;;;21.10;89.10;;;;;;5043240;28;19924;-74
2022/06/27 12:13:09;;;;;;;;;;;21.10;88.80;;;;;;5038578;28;19933;-74
2022/06/27 12:15:37;;;;;;;;;;;21.10;88.40;;;;;;5033334;28;19933;-73
2022/06/27 12:18:05;;;;;;;;;;;21.10;88.40;;;;;;5039331;28;19928;-75
2022/06/27 12:20:33;;;;;;;;;;;21.20;88.30;;;;;;5040956;28;19939;-74
2022/06/27 12:23:01;;;;;;;;;;;21.30;88.10;;;;;;5037746;28;19929;-76
2022/06/27 12:25:29;;;;;;;;;;;21.30;87.80;;;;;;5039435;28;19940;-75
2022/06/27 12:27:55;;;;;;;;;;;21.30;87.50;;;;;;5036749;28;19929;-74
2022/06/27 12:30:22;;;;;;;;;;;21.40;87.20;;;;;;5036532;28;20163;-74
2022/06/27 12:32:48;;;;;;;;;;;21.40;87.00;;;;;;5036033;28;19932;-74
2022/06/27 12:35:15;;;;;;;;;;;21.50;86.90;;;;;;5037148;28;19935;-73
2022/06/27 12:37:42;;;;;;;;;;;21.50;86.60;;;;;;5042374;28;20444;-74
2022/06/27 12:40:11;;;;;;;;;;;21.60;86.50;;;;;;5040613;28;19932;-74
2022/06/27 12:42:37;;;;;;;;;;;21.70;86.30;;;;;;5039333;28;19986;-75
2022/06/27 12:45:04;;;;;;;;;;;21.60;85.80;;;;;;5038771;28;19932;-78
2022/06/27 12:47:31;;;;;;;;;;;21.70;85.70;;;;;;5033396;28;19944;-75
2022/06/27 12:49:58;;;;;;;;;;;21.70;85.50;;;;;;5035621;28;19941;-76
2022/06/27 12:52:24;;;;;;;;;;;21.70;85.40;;;;;;5041811;28;20457;-77
2022/06/27 12:54:51;;;;;;;;;;;21.70;85.10;;;;;;5038089;28;20405;-76
2022/06/27 12:57:19;;;;;;;;;;;21.70;85.80;;;;;;5040347;28;19940;-77
2022/06/27 12:59:45;;;;;;;;;;;21.80;85.00;;;;;;5036392;28;19963;-76
2022/06/27 13:02:14;;;;;;;;;;;21.80;84.80;;;;;;5043555;28;20305;-76
2022/06/27 13:04:41;;;;;;;;;;;21.80;84.80;;;;;;5038677;28;19929;-76
2022/06/27 13:07:08;;;;;;;;;;;21.80;84.80;;;;;;5040192;28;19933;-77
2022/06/27 13:09:34;;;;;;;;;;;21.80;84.50;;;;;;5043101;28;19933;-77
2022/06/27 13:12:01;;;;;;;;;;;21.80;84.50;;;;;;5046236;28;19928;-77
2022/06/27 13:14:29;;;;;;;;;;;21.90;84.50;;;;;;5044582;28;19929;-74
2022/06/27 13:16:57;;;;;;;;;;;21.90;84.30;;;;;;5034848;28;20003;-74
2022/06/27 13:19:24;;;;;;;;;;;21.90;84.30;;;;;;5037126;28;20051;-68
2022/06/27 13:21:51;;;;;;;;;;;21.90;84.20;;;;;;5038914;28;20307;-66
2022/06/27 13:24:17;;;;;;;;;;;21.90;84.20;;;;;;5039461;28;20442;-66
2022/06/27 13:26:44;;;;;;;;;;;22.00;84.20;;;;;;5037952;28;19937;-67
2022/06/27 13:29:10;;;;;;;;;;;22.00;84.20;;;;;;5036131;28;19928;-66
2022/06/27 13:31:38;;;;;;;;;;;22.10;84.00;;;;;;5037650;28;19925;-68
2022/06/27 13:34:05;;;;;;;;;;;22.10;83.80;;;;;;5041721;28;19929;-67
2022/06/27 13:36:32;;;;;;;;;;;22.10;82.90;;;;;;5038238;28;20407;-67
2022/06/27 13:38:58;;;;;;;;;;;22.20;82.60;;;;;;5040447;28;19936;-66
2022/06/27 13:41:25;;;;;;;;;;;22.20;82.60;;;;;;5042204;28;20624;-67
2022/06/27 13:43:52;;;;;;;;;;;22.20;82.50;;;;;;5039043;28;19924;-67
2022/06/27 13:46:18;;;;;;;;;;;22.20;82.80;;;;;;5035237;28;19932;-67
2022/06/27 13:48:46;;;;;;;;;;;22.20;83.20;;;;;;5035288;28;20413;-66
2022/06/27 13:51:13;;;;;;;;;;;22.20;83.00;;;;;;5034730;28;19932;-67
2022/06/27 13:53:39;;;;;;;;;;;22.30;84.20;;;;;;5037427;28;20393;-67
2022/06/27 13:56:06;;;;;;;;;;;22.30;83.40;;;;;;5035160;28;19928;-66
2022/06/27 13:58:34;;;;;;;;;;;22.30;83.10;;;;;;5038047;28;20511;-68
2022/06/27 14:01:01;;;;;;;;;;;22.30;82.80;;;;;;5034764;28;20443;-67
2022/06/27 14:03:28;;;;;;;;;;;22.40;83.10;;;;;;5036150;28;20433;-66
2022/06/27 14:07:35;;;;;;;;;;;22.40;83.30;;;;;;5040561;28;19936;-65
2022/06/27 14:08:43;;;;;;;;;;;22.40;83.30;;;;;;5033365;28;20019;-66
2022/06/27 14:11:10;;;;;;;;;;;22.30;83.10;;;;;;5037417;28;20371;-68
2022/06/27 14:13:36;;;;;;;;;;;22.40;83.20;;;;;;5034649;28;20466;-68
2022/06/27 14:16:03;;;;;;;;;;;22.30;83.00;;;;;;5032174;28;19929;-68
2022/06/27 14:18:30;;;;;;;;;;;22.40;82.80;;;;;;5036813;28;19987;-77
2022/06/27 14:20:58;;;;;;;;;;;22.30;82.70;;;;;;5040350;28;20542;-76
2022/06/27 14:23:25;;;;;;;;;;;22.40;82.60;;;;;;5041270;28;19932;-76
2022/06/27 14:25:51;;;;;;;;;;;22.40;82.60;;;;;;5046379;28;19936;-78
2022/06/27 14:28:18;;;;;;;;;;;22.40;82.60;;;;;;5042468;28;19935;-79